Time;durP1;ratioP1;P1;durP2;ratioP2;P2;SDS_P1;SDS_P2;PMS_P1;PMS_P2;Temp;Humidity;BMP_temperature;BMP_pressure;BME280_temperature;BME280_humidity;BME280_pressure;Samples;Min_cycle;Max_cycle;Signal;HPM_P1;HPM_P2
2021/11/01 00:02:00;;;;;;;27.80;17.75;;;11.00;95.20;;;;;;5032370;28;20046;-80
2021/11/01 00:04:26;;;;;;;24.15;16.70;;;11.00;95.30;;;;;;5034469;28;20584;-80
2021/11/01 00:06:51;;;;;;;27.42;18.88;;;11.00;95.20;;;;;;5017590;28;20033;-80
2021/11/01 00:09:16;;;;;;;26.73;17.63;;;11.00;95.30;;;;;;5029871;28;20024;-80
2021/11/01 00:11:42;;;;;;;24.63;16.17;;;11.00;95.20;;;;;;5041367;28;20052;-82
2021/11/01 00:14:08;;;;;;;22.30;16.17;;;11.00;95.40;;;;;;5038946;28;20037;-81
2021/11/01 00:16:33;;;;;;;26.02;18.13;;;11.00;95.20;;;;;;5039487;28;20061;-81
2021/11/01 00:18:59;;;;;;;24.45;16.80;;;11.10;95.10;;;;;;5017854;28;20105;-81
2021/11/01 00:21:24;;;;;;;26.02;17.40;;;11.10;95.10;;;;;;5027628;28;20049;-81
2021/11/01 00:23:53;;;;;;;27.05;17.23;;;11.10;95.10;;;;;;5039364;28;20474;-81
2021/11/01 00:26:19;;;;;;;26.50;16.58;;;11.20;95.00;;;;;;5029957;28;20030;-81
2021/11/01 00:28:45;;;;;;;27.70;16.45;;;11.20;94.90;;;;;;5028897;28;20051;-81
2021/11/01 00:31:11;;;;;;;24.77;17.42;;;11.20;94.90;;;;;;5029039;28;20041;-81
2021/11/01 00:33:37;;;;;;;23.17;15.77;;;11.20;94.80;;;;;;5022245;28;20028;-81
2021/11/01 00:36:04;;;;;;;23.85;17.40;;;11.20;94.90;;;;;;5028312;28;20513;-81
2021/11/01 00:38:30;;;;;;;26.17;17.48;;;11.20;95.00;;;;;;5021849;28;20488;-81
2021/11/01 00:40:56;;;;;;;25.75;17.50;;;11.20;95.00;;;;;;5026100;28;20041;-81
2021/11/01 00:43:22;;;;;;;29.35;18.30;;;11.20;95.30;;;;;;5028719;28;20049;-81
2021/11/01 00:45:47;;;;;;;27.33;18.35;;;11.20;95.10;;;;;;5039548;28;20036;-81
2021/11/01 00:48:13;;;;;;;28.92;18.05;;;11.10;95.20;;;;;;5023439;28;20482;-81
2021/11/01 00:50:39;;;;;;;27.70;17.73;;;11.20;95.20;;;;;;5042214;28;20063;-81
2021/11/01 00:53:05;;;;;;;28.67;18.23;;;11.20;95.30;;;;;;5044762;28;20022;-81
2021/11/01 00:55:48;;;;;;;29.02;18.00;;;11.20;95.30;;;;;;5037829;28;20040;-81
2021/11/01 00:58:17;;;;;;;25.45;18.48;;;11.10;95.30;;;;;;5017937;28;20693;-81
2021/11/01 01:00:42;;;;;;;27.83;19.25;;;11.20;95.40;;;;;;5028885;28;20045;-81
2021/11/01 01:03:12;;;;;;;27.17;18.45;;;11.20;95.40;;;;;;5024284;28;20033;-81
2021/11/01 01:05:43;;;;;;;26.60;19.00;;;11.20;95.40;;;;;;5043610;28;20026;-81
2021/11/01 01:08:12;;;;;;;30.08;18.98;;;11.20;95.30;;;;;;5028225;28;20021;-81
2021/11/01 01:10:38;;;;;;;26.13;17.80;;;11.20;95.30;;;;;;5023737;28;20036;-81
2021/11/01 01:13:05;;;;;;;26.83;18.70;;;11.30;95.30;;;;;;5012874;28;20025;-81
2021/11/01 01:15:36;;;;;;;27.35;18.75;;;11.30;95.20;;;;;;5014124;28;20433;-80
2021/11/01 01:18:07;;;;;;;26.70;17.85;;;11.30;95.20;;;;;;5035855;28;20358;-81
2021/11/01 01:20:33;;;;;;;26.70;17.42;;;11.40;95.20;;;;;;5030227;28;20042;-81
2021/11/01 01:22:58;;;;;;;29.00;16.88;;;11.40;95.00;;;;;;5050777;28;20398;-81
2021/11/01 01:25:40;;;;;;;24.45;17.90;;;11.50;94.90;;;;;;5028309;28;20025;-81
2021/11/01 01:28:06;;;;;;;25.13;17.30;;;11.50;94.80;;;;;;5018645;28;20083;-81
2021/11/01 01:30:32;;;;;;;26.70;17.35;;;11.60;94.80;;;;;;5014822;28;20124;-80
2021/11/01 01:32:57;;;;;;;23.92;17.52;;;11.60;94.70;;;;;;5022316;28;20393;-79
2021/11/01 01:35:23;;;;;;;27.13;17.08;;;11.70;94.50;;;;;;5025263;28;20475;-79
2021/11/01 01:37:53;;;;;;;26.48;18.83;;;11.80;94.40;;;;;;5028807;28;20179;-79
2021/11/01 01:40:19;;;;;;;24.90;17.50;;;11.80;94.30;;;;;;5023746;28;20518;-80
2021/11/01 01:42:44;;;;;;;24.48;16.52;;;11.90;94.20;;;;;;5028681;28;20064;-79
2021/11/01 01:45:10;;;;;;;25.02;17.10;;;11.90;94.20;;;;;;5030937;28;20107;-80
2021/11/01 01:47:36;;;;;;;25.88;16.65;;;11.90;94.10;;;;;;5023934;28;20108;-80
2021/11/01 01:50:03;;;;;;;26.83;17.80;;;11.90;94.10;;;;;;5034278;28;20105;-79
2021/11/01 01:52:30;;;;;;;25.05;18.42;;;12.00;94.10;;;;;;5025151;28;20052;-80
2021/11/01 01:54:56;;;;;;;25.10;17.65;;;12.00;94.00;;;;;;5010862;28;20060;-80
2021/11/01 01:57:22;;;;;;;25.98;17.77;;;12.00;93.90;;;;;;5011238;28;20026;-80
2021/11/01 01:59:48;;;;;;;25.33;16.67;;;12.00;93.90;;;;;;5034491;28;20044;-80
2021/11/01 02:02:14;;;;;;;28.80;18.05;;;12.00;93.90;;;;;;5013185;28;20064;-82
2021/11/01 02:04:41;;;;;;;23.13;16.55;;;12.10;93.80;;;;;;5044379;28;20033;-80
2021/11/01 02:07:29;;;;;;;23.67;17.38;;;12.00;93.80;;;;;;5032476;28;20037;-81
2021/11/01 02:10:09;;;;;;;28.67;17.50;;;12.00;93.80;;;;;;5043907;28;20083;-80
2021/11/01 02:12:49;;;;;;;24.30;17.52;;;12.00;93.90;;;;;;5023446;28;20030;-80
2021/11/01 02:15:29;;;;;;;24.40;16.95;;;12.00;93.80;;;;;;5039114;28;20030;-80
2021/11/01 02:17:57;;;;;;;26.25;17.83;;;12.00;93.80;;;;;;5026985;28;20033;-80
2021/11/01 02:20:36;;;;;;;27.33;17.90;;;12.10;93.90;;;;;;5035866;28;20036;-80
2021/11/01 02:23:21;;;;;;;25.10;16.55;;;12.10;93.80;;;;;;5022023;28;20063;-82
2021/11/01 02:25:53;;;;;;;24.88;17.25;;;12.10;93.80;;;;;;5027476;28;20030;-81
2021/11/01 02:28:29;;;;;;;25.60;17.57;;;12.10;93.80;;;;;;5024407;28;20021;-82
2021/11/01 02:30:55;;;;;;;24.20;16.00;;;12.10;93.80;;;;;;5030402;28;20296;-81
2021/11/01 02:33:23;;;;;;;23.58;16.63;;;12.10;93.80;;;;;;5033711;28;20033;-80
2021/11/01 02:35:50;;;;;;;22.63;16.70;;;12.10;93.70;;;;;;5023875;28;20092;-82
2021/11/01 02:38:20;;;;;;;25.33;15.98;;;12.10;93.70;;;;;;5038532;28;20393;-80
2021/11/01 02:40:46;;;;;;;25.17;17.15;;;12.20;93.70;;;;;;5017989;28;20042;-81
2021/11/01 02:43:13;;;;;;;27.15;17.42;;;12.20;93.70;;;;;;5032001;28;20106;-81
2021/11/01 02:45:39;;;;;;;27.98;16.23;;;12.20;93.60;;;;;;5018030;28;20164;-81
2021/11/01 02:48:05;;;;;;;28.83;18.40;;;12.20;93.60;;;;;;5029163;28;20105;-81
2021/11/01 02:50:32;;;;;;;25.98;16.23;;;12.20;93.70;;;;;;5034119;28;20029;-82
2021/11/01 02:52:58;;;;;;;22.80;17.10;;;12.20;93.70;;;;;;5028517;28;20363;-81
2021/11/01 02:55:23;;;;;;;22.52;15.73;;;12.20;93.70;;;;;;5034186;28;20074;-80
2021/11/01 02:57:49;;;;;;;23.08;16.38;;;12.20;93.70;;;;;;5037992;28;20462;-82
2021/11/01 03:00:18;;;;;;;27.00;17.92;;;12.20;93.70;;;;;;5030168;28;20038;-81
2021/11/01 03:02:44;;;;;;;25.38;17.63;;;12.20;93.80;;;;;;5036359;28;20037;-81
2021/11/01 03:05:13;;;;;;;28.92;18.02;;;12.20;93.80;;;;;;5025422;28;20049;-81
2021/11/01 03:07:40;;;;;;;27.17;17.55;;;12.20;93.90;;;;;;5015934;28;20034;-79
2021/11/01 03:10:08;;;;;;;25.75;18.60;;;12.20;94.00;;;;;;5030977;28;20025;-80
2021/11/01 03:12:34;;;;;;;26.00;16.85;;;12.20;94.00;;;;;;5031671;28;20039;-80
2021/11/01 03:15:05;;;;;;;25.20;16.65;;;12.10;94.10;;;;;;5035579;28;20123;-80
2021/11/01 03:17:36;;;;;;;26.80;18.13;;;12.10;94.10;;;;;;5028482;28;20033;-80
2021/11/01 03:20:13;;;;;;;25.58;17.17;;;12.10;94.20;;;;;;5029282;28;20029;-79
2021/11/01 03:22:42;;;;;;;25.85;17.58;;;12.10;94.30;;;;;;5031020;28;20038;-79
2021/11/01 03:25:21;;;;;;;24.45;17.58;;;12.00;94.30;;;;;;5019749;28;20030;-80
2021/11/01 03:27:49;;;;;;;26.42;17.27;;;12.00;94.30;;;;;;5043135;28;20037;-81
2021/11/01 03:30:17;;;;;;;25.77;17.38;;;12.00;94.50;;;;;;5044997;28;20034;-80
2021/11/01 03:32:44;;;;;;;26.13;17.98;;;11.90;94.40;;;;;;5032274;28;20026;-80
2021/11/01 03:35:11;;;;;;;27.50;17.92;;;11.90;94.50;;;;;;5044437;28;20082;-80
2021/11/01 03:37:37;;;;;;;24.30;16.75;;;11.90;94.50;;;;;;5030980;28;20033;-80
2021/11/01 03:40:04;;;;;;;28.55;16.55;;;11.90;94.50;;;;;;5035874;28;20141;-80
2021/11/01 03:42:31;;;;;;;24.35;16.98;;;11.90;94.60;;;;;;5039591;28;20119;-80
2021/11/01 03:45:03;;;;;;;24.95;16.80;;;11.90;94.60;;;;;;5049532;28;20025;-80
2021/11/01 03:47:33;;;;;;;24.85;17.33;;;11.90;94.60;;;;;;5033657;28;20079;-80
2021/11/01 03:50:04;;;;;;;24.83;17.17;;;11.90;94.60;;;;;;5029264;28;20113;-79
2021/11/01 03:52:34;;;;;;;29.48;17.45;;;11.90;94.70;;;;;;5030499;28;20025;-81
2021/11/01 03:55:01;;;;;;;26.08;16.85;;;11.90;94.70;;;;;;5029865;28;20037;-80
2021/11/01 03:57:27;;;;;;;26.95;18.00;;;11.90;94.80;;;;;;5021565;28;20025;-81
2021/11/01 03:59:53;;;;;;;25.65;16.73;;;11.90;94.80;;;;;;5020918;28;20115;-80
2021/11/01 04:02:20;;;;;;;24.10;16.80;;;11.90;94.80;;;;;;5037519;28;20057;-80
2021/11/01 04:04:51;;;;;;;25.35;16.42;;;11.90;94.80;;;;;;5016498;28;20029;-80
2021/11/01 04:07:17;;;;;;;25.90;18.02;;;12.00;94.80;;;;;;5021478;28;20543;-81
2021/11/01 04:09:43;;;;;;;24.42;16.88;;;11.90;94.90;;;;;;5029902;28;20041;-81
2021/11/01 04:12:10;;;;;;;25.13;16.92;;;12.00;94.90;;;;;;5044124;28;20072;-81
2021/11/01 04:14:43;;;;;;;23.55;16.88;;;12.00;94.80;;;;;;5035177;28;20108;-81
2021/11/01 04:17:20;;;;;;;23.63;16.38;;;12.00;94.80;;;;;;5022179;28;20437;-81
2021/11/01 04:19:55;;;;;;;22.38;15.18;;;12.00;94.70;;;;;;5019016;28;20080;-82
2021/11/01 04:22:22;;;;;;;29.30;16.25;;;12.00;94.70;;;;;;5018368;28;20033;-81
2021/11/01 04:24:47;;;;;;;23.45;17.35;;;12.10;94.60;;;;;;5017025;28;20033;-81
2021/11/01 04:27:13;;;;;;;27.90;17.23;;;12.10;94.60;;;;;;5032149;28;20095;-81
2021/11/01 04:29:39;;;;;;;26.85;16.73;;;12.10;94.80;;;;;;5025508;28;20024;-79
2021/11/01 04:32:19;;;;;;;21.92;16.25;;;12.10;94.60;;;;;;5033833;28;20041;-82
2021/11/01 04:35:01;;;;;;;23.25;16.40;;;12.20;94.60;;;;;;5013793;28;20566;-81
2021/11/01 04:37:28;;;;;;;23.52;15.23;;;12.20;94.60;;;;;;5016320;28;20037;-81
2021/11/01 04:40:23;;;;;;;26.33;16.75;;;12.20;94.70;;;;;;5037075;28;20124;-81
2021/11/01 04:53:48;;;;;;;24.10;16.58;;;12.30;94.70;;;;;;5011338;28;20079;-81
2021/11/01 04:56:17;;;;;;;25.92;16.10;;;12.30;94.50;;;;;;5038439;28;20037;-81
2021/11/01 04:58:44;;;;;;;23.63;16.40;;;12.40;94.50;;;;;;5015145;28;20095;-82
2021/11/01 05:01:10;;;;;;;22.83;15.85;;;12.40;94.50;;;;;;5026078;28;20436;-81
2021/11/01 05:03:41;;;;;;;25.17;16.65;;;12.50;94.40;;;;;;5026727;28;20111;-81
2021/11/01 05:06:07;;;;;;;25.23;17.10;;;12.50;94.30;;;;;;5030428;28;20078;-81
2021/11/01 05:08:41;;;;;;;20.70;15.45;;;12.50;94.20;;;;;;5025081;28;20033;-82
2021/11/01 05:11:14;;;;;;;22.48;15.82;;;12.50;94.20;;;;;;5023442;28;20053;-82
2021/11/01 05:13:40;;;;;;;22.83;16.98;;;12.60;94.30;;;;;;5016674;28;20026;-82
2021/11/01 05:16:16;;;;;;;24.50;16.88;;;12.70;94.20;;;;;;5028063;28;20040;-81
2021/11/01 05:19:00;;;;;;;25.00;18.05;;;12.70;94.20;;;;;;5022568;28;20022;-81
2021/11/01 05:21:46;;;;;;;22.05;16.15;;;12.70;94.00;;;;;;5032749;28;20090;-82
2021/11/01 05:24:20;;;;;;;24.90;17.05;;;12.80;94.00;;;;;;5037875;28;20025;-81
2021/11/01 05:29:11;;;;;;;25.25;15.75;;;12.80;94.00;;;;;;5028440;28;20151;-81
2021/11/01 05:31:48;;;;;;;23.20;16.65;;;12.90;93.80;;;;;;5016939;28;20036;-83
2021/11/01 05:34:17;;;;;;;27.38;17.48;;;12.90;93.80;;;;;;5024487;28;20029;-81
2021/11/01 05:36:43;;;;;;;22.15;15.57;;;13.00;93.70;;;;;;5023348;28;20038;-81
2021/11/01 05:39:09;;;;;;;23.67;16.08;;;13.00;93.80;;;;;;5015725;28;20588;-79
2021/11/01 05:41:35;;;;;;;22.25;15.98;;;13.00;93.60;;;;;;5023017;28;20124;-80
2021/11/01 05:44:01;;;;;;;23.63;16.38;;;13.10;93.40;;;;;;5019022;28;20671;-82
2021/11/01 05:46:34;;;;;;;23.10;16.30;;;13.10;93.60;;;;;;5025769;28;20037;-81
2021/11/01 05:49:00;;;;;;;24.98;16.75;;;13.10;93.60;;;;;;5028448;28;20025;-80
2021/11/01 05:51:26;;;;;;;24.27;15.90;;;13.20;93.70;;;;;;5027619;28;20067;-80
2021/11/01 05:53:59;;;;;;;24.63;16.75;;;13.10;93.50;;;;;;5025695;28;20432;-80
2021/11/01 05:56:33;;;;;;;24.20;16.33;;;13.10;93.70;;;;;;5020121;28;20025;-80
2021/11/01 06:04:19;;;;;;;25.35;14.75;;;13.20;93.70;;;;;;5022744;28;20117;-81
2021/11/01 06:14:38;;;;;;;24.60;14.77;;;13.20;93.90;;;;;;5025491;28;20037;-82
2021/11/01 06:17:04;;;;;;;25.38;16.38;;;13.20;94.00;;;;;;5029482;28;20033;-83
2021/11/01 06:19:29;;;;;;;21.85;15.38;;;13.20;93.80;;;;;;5027014;28;20053;-83
2021/11/01 06:21:55;;;;;;;23.52;16.58;;;13.20;93.70;;;;;;5026178;28;20073;-82
2021/11/01 06:27:09;;;;;;;21.98;15.70;;;13.20;93.80;;;;;;5026636;28;20029;-80
2021/11/01 06:29:48;;;;;;;21.13;15.07;;;13.30;93.70;;;;;;5021624;28;20022;-82
2021/11/01 06:32:26;;;;;;;23.52;15.30;;;13.20;93.80;;;;;;5022066;28;20077;-82
2021/11/01 06:40:34;;;;;;;23.83;16.58;;;13.40;93.90;;;;;;5024393;28;20464;-80
2021/11/01 06:46:17;;;;;;;19.00;13.43;;;13.40;93.90;;;;;;5024971;28;20462;-80
2021/11/01 06:51:56;;;;;;;20.90;15.27;;;13.40;94.00;;;;;;5024080;28;20552;-80
2021/11/01 06:54:53;;;;;;;21.67;15.32;;;13.40;94.10;;;;;;5035081;28;20025;-80
2021/11/01 06:57:27;;;;;;;27.77;15.93;;;13.40;94.10;;;;;;5034611;28;20033;-80
2021/11/01 07:16:30;;;;;;;27.13;15.38;;;13.60;94.30;;;;;;5049665;28;20068;-82
2021/11/01 07:24:28;;;;;;;22.67;15.48;;;13.70;94.20;;;;;;5045208;28;20033;-80
2021/11/01 08:25:02;;;;;;;12.80;8.55;;;14.30;93.60;;;;;;5028180;28;20041;-81
2021/11/01 08:27:57;;;;;;;10.05;7.03;;;14.30;93.40;;;;;;5028868;28;20421;-81
2021/11/01 08:36:23;;;;;;;25.60;9.90;;;14.50;93.20;;;;;;5029988;28;20487;-83
2021/11/01 08:41:20;;;;;;;108.43;26.40;;;14.70;92.90;;;;;;5029448;28;20036;-82
2021/11/01 08:49:28;;;;;;;9.85;6.13;;;14.80;92.70;;;;;;5015211;28;20084;-80
2021/11/01 09:03:05;;;;;;;6.10;3.40;;;14.60;91.80;;;;;;5019209;28;20540;-81
2021/11/01 09:05:55;;;;;;;3.92;2.35;;;14.70;92.00;;;;;;5040807;28;20033;-80
2021/11/01 09:18:45;;;;;;;3.38;1.27;;;14.90;91.10;;;;;;5014063;28;20096;-81
2021/11/01 09:19:48;;;;;;;1.23;0.88;;;14.90;90.40;;;;;;5018403;28;20029;-81
2021/11/01 09:25:12;;;;;;;1.30;0.70;;;15.00;90.10;;;;;;5020805;28;20035;-78
2021/11/01 09:27:40;;;;;;;1.17;0.70;;;15.00;90.20;;;;;;5031771;28;20029;-81
2021/11/01 09:30:35;;;;;;;1.88;0.80;;;14.90;90.00;;;;;;5027345;28;20026;-81
2021/11/01 09:36:12;;;;;;;3.95;1.17;;;14.80;90.70;;;;;;5026124;28;20032;-80
2021/11/01 09:38:54;;;;;;;2.97;0.90;;;14.90;90.70;;;;;;5027981;28;20060;-79
2021/11/01 09:41:25;;;;;;;3.47;0.93;;;14.90;90.70;;;;;;5028183;28;20087;-80
2021/11/01 09:43:54;;;;;;;3.47;0.85;;;15.00;90.60;;;;;;5031262;28;20061;-79
2021/11/01 09:46:21;;;;;;;1.70;0.93;;;15.10;90.70;;;;;;5028150;28;20036;-79
2021/11/01 09:48:47;;;;;;;1.40;1.10;;;15.10;90.50;;;;;;5025378;28;20480;-80
2021/11/01 09:51:13;;;;;;;1.88;1.05;;;15.10;90.90;;;;;;5023870;28;20095;-80
2021/11/01 09:53:41;;;;;;;3.33;1.30;;;15.10;91.50;;;;;;5040725;28;20040;-79
2021/11/01 09:56:30;;;;;;;3.83;0.90;;;15.00;91.70;;;;;;5010082;28;20017;-79
2021/11/01 09:59:12;;;;;;;3.20;0.98;;;15.00;92.00;;;;;;5028897;28;20096;-79
2021/11/01 10:01:39;;;;;;;3.42;1.23;;;15.00;92.20;;;;;;5026280;28;20037;-79
2021/11/01 10:04:14;;;;;;;1.63;0.90;;;14.90;92.50;;;;;;5021014;28;20040;-79
2021/11/01 10:06:40;;;;;;;6.53;1.10;;;14.80;92.90;;;;;;5008933;28;20026;-78
2021/11/01 10:09:12;;;;;;;2.15;0.98;;;14.70;93.20;;;;;;5020438;28;20033;-79
2021/11/01 10:11:39;;;;;;;6.07;2.17;;;14.70;93.70;;;;;;5024573;28;20411;-78
2021/11/01 10:14:07;;;;;;;2.97;0.90;;;14.70;93.90;;;;;;5027688;28;20505;-79
2021/11/01 10:19:33;;;;;;;3.30;1.17;;;14.70;94.30;;;;;;5012128;28;20061;-78
2021/11/01 10:22:08;;;;;;;2.92;0.98;;;14.70;94.70;;;;;;5023674;28;20138;-79
2021/11/01 10:24:39;;;;;;;2.50;1.23;;;14.80;95.10;;;;;;5016344;28;20029;-80
2021/11/01 10:27:09;;;;;;;4.22;1.35;;;14.80;95.10;;;;;;5022330;28;20112;-79
2021/11/01 10:30:00;;;;;;;3.67;1.42;;;14.80;94.80;;;;;;5009004;28;20033;-79
2021/11/01 10:32:36;;;;;;;3.25;1.70;;;14.90;94.90;;;;;;5018736;28;20029;-78
2021/11/01 10:35:16;;;;;;;2.47;1.42;;;14.90;95.00;;;;;;5029840;28;20527;-78
2021/11/01 10:38:03;;;;;;;8.57;2.38;;;14.90;95.40;;;;;;5017770;28;20419;-79
2021/11/01 10:40:31;;;;;;;5.15;2.38;;;14.90;95.00;;;;;;5027020;28;20033;-79
2021/11/01 10:43:15;;;;;;;6.60;1.92;;;14.90;95.30;;;;;;5023344;28;20041;-79
2021/11/01 10:57:18;;;;;;;5.38;4.10;;;15.00;96.30;;;;;;5012437;28;20032;-80
2021/11/01 11:11:02;;;;;;;12.32;8.63;;;14.90;96.90;;;;;;5025827;28;20033;-79
2021/11/01 11:13:33;;;;;;;14.35;8.65;;;14.90;97.10;;;;;;5018762;28;20017;-80
2021/11/01 11:16:00;;;;;;;10.82;7.97;;;14.90;97.20;;;;;;5026717;28;20030;-80
2021/11/01 11:18:49;;;;;;;11.63;8.77;;;14.90;97.10;;;;;;5010394;28;20022;-79
2021/11/01 11:29:27;;;;;;;16.90;10.35;;;14.90;97.40;;;;;;5028461;28;20041;-79
2021/11/01 11:38:02;;;;;;;21.38;12.38;;;14.90;98.30;;;;;;5017935;28;20026;-82
2021/11/01 11:40:47;;;;;;;23.55;13.98;;;14.80;98.60;;;;;;5026436;28;20037;-82
2021/11/01 11:43:35;;;;;;;30.90;16.40;;;14.80;98.60;;;;;;5011156;28;20046;-80
2021/11/01 11:49:18;;;;;;;40.15;15.02;;;14.90;98.90;;;;;;5026499;28;20101;-81
2021/11/01 11:52:04;;;;;;;15.23;9.95;;;14.90;98.80;;;;;;5026092;28;20466;-83
2021/11/01 11:54:47;;;;;;;21.15;10.93;;;14.90;98.70;;;;;;5010451;28;20694;-79
2021/11/01 11:57:25;;;;;;;;;;;14.90;98.30;;;;;;5015488;28;20065;-77
2021/11/01 11:59:54;;;;;;;12.07;8.18;;;14.90;98.00;;;;;;5015295;28;20362;-80
2021/11/01 12:02:38;;;;;;;9.68;6.75;;;14.80;98.20;;;;;;5023184;28;20386;-79
2021/11/01 12:05:15;;;;;;;9.05;6.80;;;14.80;98.20;;;;;;5021292;28;20025;-79
2021/11/01 12:07:52;;;;;;;10.57;6.13;;;14.80;98.20;;;;;;5026967;28;20654;-80
2021/11/01 12:13:28;;;;;;;6.88;4.97;;;14.70;98.20;;;;;;5029708;28;20040;-80
2021/11/01 12:18:47;;;;;;;7.45;5.13;;;14.60;98.20;;;;;;5029132;28;20185;-79
2021/11/01 12:21:13;;;;;;;7.65;4.57;;;14.60;97.90;;;;;;5016309;28;20113;-79
2021/11/01 12:23:42;;;;;;;5.50;4.43;;;14.60;97.90;;;;;;5023935;28;20478;-79
2021/11/01 12:26:10;;;;;;;6.47;3.92;;;14.60;98.30;;;;;;5015702;28;20042;-80
2021/11/01 12:28:37;;;;;;;6.90;4.32;;;14.60;97.80;;;;;;5011213;28;20029;-79
2021/11/01 12:31:03;;;;;;;6.38;3.80;;;14.50;97.80;;;;;;5025650;28;20305;-79
2021/11/01 12:33:29;;;;;;;5.88;3.47;;;14.50;98.10;;;;;;5012107;28;20133;-79
2021/11/01 12:36:00;;;;;;;4.47;3.15;;;14.50;97.60;;;;;;5010749;28;20084;-79
2021/11/01 12:38:40;;;;;;;4.43;3.08;;;14.50;97.60;;;;;;5033455;28;20032;-79
2021/11/01 12:41:14;;;;;;;5.88;3.10;;;14.40;97.60;;;;;;5040368;28;20045;-79
2021/11/01 12:46:52;;;;;;;5.00;3.17;;;14.50;97.50;;;;;;5023980;28;20386;-79
2021/11/01 12:49:22;;;;;;;3.08;2.55;;;14.50;97.70;;;;;;5015540;28;20042;-79
2021/11/01 12:57:32;;;;;;;3.17;2.25;;;14.60;97.50;;;;;;5024780;28;20028;-79
2021/11/01 12:59:59;;;;;;;3.38;2.15;;;14.60;97.40;;;;;;5027360;28;20478;-79
2021/11/01 13:02:30;;;;;;;2.80;2.00;;;14.60;97.50;;;;;;5023582;28;20422;-79
2021/11/01 13:04:58;;;;;;;5.38;2.10;;;14.60;97.50;;;;;;5026579;28;20518;-79
2021/11/01 13:07:40;;;;;;;3.22;1.98;;;14.60;97.60;;;;;;5028229;28;20450;-79
2021/11/01 13:12:50;;;;;;;3.88;2.53;;;14.60;97.10;;;;;;5028642;28;20278;-79
2021/11/01 13:18:12;;;;;;;3.03;1.50;;;14.60;96.90;;;;;;5020418;28;20044;-79
2021/11/01 13:20:41;;;;;;;5.25;1.45;;;14.50;97.00;;;;;;5028329;28;20043;-79
2021/11/01 13:23:08;;;;;;;4.00;2.60;;;14.50;96.80;;;;;;5026307;28;20037;-79
2021/11/01 13:25:43;;;;;;;3.13;1.70;;;14.50;96.80;;;;;;5026809;28;20037;-79
2021/11/01 13:36:39;;;;;;;2.78;2.20;;;14.20;96.80;;;;;;5012489;28;20055;-79
2021/11/01 13:39:06;;;;;;;3.47;1.70;;;14.10;97.00;;;;;;5028580;28;20034;-79
2021/11/01 13:41:32;;;;;;;4.05;1.60;;;14.10;97.40;;;;;;5038966;28;20033;-79
2021/11/01 13:44:13;;;;;;;3.65;1.40;;;14.10;97.00;;;;;;5028563;28;20053;-80
2021/11/01 13:46:46;;;;;;;6.25;2.03;;;14.10;97.30;;;;;;5027984;28;20029;-79
2021/11/01 13:49:14;;;;;;;3.95;1.98;;;14.10;96.90;;;;;;5027859;28;20030;-79
2021/11/01 13:51:42;;;;;;;3.53;1.65;;;14.00;96.80;;;;;;5027962;28;20025;-79
2021/11/01 13:54:32;;;;;;;2.97;1.83;;;14.00;96.80;;;;;;5028020;28;20021;-78
2021/11/01 13:57:01;;;;;;;2.45;1.40;;;14.00;96.90;;;;;;5028194;28;20104;-80
2021/11/01 13:59:46;;;;;;;4.47;1.73;;;13.90;96.90;;;;;;5027003;28;20030;-79
2021/11/01 14:02:48;;;;;;;2.95;1.70;;;13.90;96.90;;;;;;5026634;28;20067;-78
2021/11/01 14:18:41;;;;;;;4.07;2.35;;;13.80;97.00;;;;;;5023242;28;20033;-80
2021/11/01 14:27:11;;;;;;;3.10;1.60;;;13.80;96.70;;;;;;5025295;28;20532;-80
2021/11/01 14:32:25;;;;;;;6.00;2.20;;;13.80;96.90;;;;;;5037692;28;20064;-80
2021/11/01 15:18:32;;;;;;;4.25;2.33;;;13.50;97.60;;;;;;5022081;28;20041;-80
2021/11/01 15:21:04;;;;;;;7.90;2.45;;;13.50;97.70;;;;;;5031301;28;20021;-79
2021/11/01 15:26:46;;;;;;;4.05;2.58;;;13.40;97.40;;;;;;5013572;28;20042;-80
2021/11/01 15:29:30;;;;;;;4.38;1.73;;;13.40;97.40;;;;;;5017637;28;20025;-80
2021/11/01 15:32:29;;;;;;;3.85;2.05;;;13.30;97.40;;;;;;5037660;28;20033;-79
2021/11/01 15:34:55;;;;;;;2.83;1.80;;;13.30;97.40;;;;;;5033427;28;20029;-80
2021/11/01 15:40:26;;;;;;;3.10;2.08;;;13.20;97.60;;;;;;5033971;28;20032;-80
2021/11/01 15:43:08;;;;;;;3.97;2.20;;;13.20;97.60;;;;;;5034450;28;20041;-80
2021/11/01 16:18:32;;;;;;;2.58;2.20;;;13.00;97.60;;;;;;5031466;28;20156;-79
2021/11/01 16:20:58;;;;;;;3.65;2.08;;;13.00;97.60;;;;;;5026638;28;20045;-81
2021/11/01 16:23:34;;;;;;;5.20;1.83;;;13.00;97.70;;;;;;5028884;28;20049;-80
2021/11/01 16:26:08;;;;;;;5.38;2.30;;;12.90;97.50;;;;;;5021153;28;20084;-80
2021/11/01 16:28:34;;;;;;;3.97;1.98;;;12.90;97.60;;;;;;5018859;28;20467;-81
2021/11/01 16:33:42;;;;;;;6.60;2.10;;;12.90;97.50;;;;;;5022579;28;20037;-79
2021/11/01 16:36:19;;;;;;;2.35;1.70;;;12.90;97.70;;;;;;5040116;28;20080;-77
2021/11/01 16:38:51;;;;;;;3.92;2.28;;;12.90;97.70;;;;;;5018638;28;20119;-79
2021/11/01 16:41:20;;;;;;;3.20;1.98;;;12.90;97.60;;;;;;5017826;28;20037;-78
2021/11/01 16:43:46;;;;;;;3.78;2.15;;;12.90;97.70;;;;;;5027720;28;20049;-79
2021/11/01 16:46:12;;;;;;;2.67;1.77;;;12.90;97.70;;;;;;5021294;28;20026;-78
2021/11/01 16:48:38;;;;;;;3.92;1.90;;;12.90;97.80;;;;;;5012038;28;20040;-79
2021/11/01 16:51:04;;;;;;;2.30;1.75;;;12.90;97.80;;;;;;5014582;28;20048;-80
2021/11/01 16:53:32;;;;;;;5.38;3.08;;;12.90;97.80;;;;;;5028039;28;20065;-79
2021/11/01 16:56:11;;;;;;;3.63;1.92;;;12.90;98.00;;;;;;5030699;28;20386;-80
2021/11/01 16:58:45;;;;;;;3.25;1.92;;;12.80;98.30;;;;;;5018765;28;20057;-79
2021/11/01 17:01:16;;;;;;;2.40;1.77;;;12.80;98.10;;;;;;5012301;28;20466;-79
2021/11/01 17:03:46;;;;;;;3.42;1.75;;;12.80;98.20;;;;;;5019086;28;20112;-78
2021/11/01 17:06:27;;;;;;;5.10;1.85;;;12.80;98.30;;;;;;5030737;28;20034;-78
2021/11/01 17:22:29;;;;;;;3.30;2.35;;;12.80;98.30;;;;;;5028244;28;20040;-80
2021/11/01 18:37:27;;;;;;;5.60;3.33;;;12.40;99.20;;;;;;5016503;28;20037;-80
2021/11/01 18:40:09;;;;;;;;;;;12.40;99.20;;;;;;5026955;28;20068;-81
2021/11/01 18:45:17;;;;;;;6.78;3.20;;;12.40;99.20;;;;;;5022340;28;20060;-79
2021/11/01 18:50:52;;;;;;;6.05;3.70;;;12.40;99.30;;;;;;5023513;28;20037;-81
2021/11/01 18:53:31;;;;;;;6.85;3.65;;;12.40;99.30;;;;;;5018317;28;20029;-79
2021/11/01 18:55:57;;;;;;;8.98;3.78;;;12.40;99.20;;;;;;5028539;28;20391;-79
2021/11/01 18:58:25;;;;;;;5.10;3.05;;;12.40;99.20;;;;;;5028111;28;20037;-78
2021/11/01 19:00:52;;;;;;;6.60;3.67;;;12.40;99.20;;;;;;5029195;28;20030;-80
2021/11/01 19:03:21;;;;;;;5.20;3.38;;;12.30;99.20;;;;;;5032484;28;20107;-80
2021/11/01 19:06:05;;;;;;;3.92;2.83;;;12.40;99.20;;;;;;5038960;28;20104;-80
2021/11/01 19:08:48;;;;;;;5.40;2.85;;;12.40;99.30;;;;;;5019483;28;20022;-80
2021/11/01 20:02:46;;;;;;;6.80;3.50;;;12.30;99.20;;;;;;5036713;28;20033;-79
2021/11/01 20:12:08;;;;;;;6.18;2.67;;;12.10;98.80;;;;;;5034846;28;20048;-79
2021/11/01 20:14:49;;;;;;;3.85;2.50;;;12.10;98.80;;;;;;5032852;28;20033;-79
2021/11/01 21:26:27;;;;;;;9.18;3.38;;;12.00;99.10;;;;;;5020309;28;20049;-79
2021/11/01 21:28:53;;;;;;;8.70;2.60;;;12.00;99.10;;;;;;5028445;28;20033;-80
2021/11/01 21:31:21;;;;;;;8.75;2.92;;;12.00;99.00;;;;;;5029858;28;20370;-79
2021/11/01 21:33:51;;;;;;;6.13;2.83;;;12.10;99.10;;;;;;5014318;28;20025;-80
2021/11/01 21:36:23;;;;;;;7.95;3.03;;;12.00;99.10;;;;;;5016584;28;20022;-80
2021/11/01 21:38:54;;;;;;;6.15;2.90;;;12.00;99.10;;;;;;5021143;28;20086;-80
2021/11/01 21:41:20;;;;;;;5.47;2.35;;;12.00;99.10;;;;;;5029284;28;20079;-79
2021/11/01 21:43:46;;;;;;;4.45;2.67;;;12.00;99.30;;;;;;5010844;28;20026;-79
2021/11/01 21:46:11;;;;;;;4.60;2.55;;;12.00;99.10;;;;;;5019823;28;20033;-81
2021/11/01 21:48:37;;;;;;;8.90;3.03;;;12.00;99.00;;;;;;5036641;28;20067;-80
2021/11/01 21:51:02;;;;;;;6.28;2.65;;;12.00;99.00;;;;;;5025043;28;20115;-80
2021/11/01 21:53:30;;;;;;;4.53;2.75;;;12.00;98.90;;;;;;5017057;28;20030;-79
2021/11/01 21:55:56;;;;;;;4.75;1.95;;;12.00;98.90;;;;;;5030465;28;20021;-79
2021/11/01 21:58:55;;;;;;;3.20;2.50;;;12.00;99.00;;;;;;5021233;28;20033;-80
2021/11/01 22:01:43;;;;;;;4.10;2.60;;;12.00;99.00;;;;;;5020314;28;20491;-80
2021/11/01 22:09:59;;;;;;;5.05;2.80;;;12.00;99.00;;;;;;5024563;28;20092;-80
2021/11/01 22:18:03;;;;;;;4.68;2.70;;;11.90;99.10;;;;;;5023424;28;20153;-78
2021/11/01 22:20:30;;;;;;;3.78;2.00;;;11.90;99.10;;;;;;5026607;28;20112;-78
2021/11/01 22:23:11;;;;;;;5.78;2.30;;;11.90;99.10;;;;;;5010717;28;20153;-79
2021/11/01 22:26:00;;;;;;;7.45;2.75;;;11.90;99.10;;;;;;5019166;28;20022;-79
2021/11/01 22:40:12;;;;;;;6.28;2.30;;;11.90;99.10;;;;;;5025173;28;20053;-80